sensor_id;sensor_type;location;lat;lon;timestamp;P1;durP1;ratioP1;P2;durP2;ratioP2
727;SDS011;347;48.780;9.158;2022-09-25T00:00:33;15.70;;;14.70;;
727;SDS011;347;48.780;9.158;2022-09-25T00:02:58;16.70;;;15.70;;
727;SDS011;347;48.780;9.158;2022-09-25T00:05:24;15.80;;;14.90;;
727;SDS011;347;48.780;9.158;2022-09-25T00:07:49;15.00;;;13.90;;
727;SDS011;347;48.780;9.158;2022-09-25T00:10:15;15.40;;;14.20;;
727;SDS011;347;48.780;9.158;2022-09-25T00:12:41;17.43;;;16.43;;
727;SDS011;347;48.780;9.158;2022-09-25T00:15:07;17.20;;;16.10;;
727;SDS011;347;48.780;9.158;2022-09-25T00:17:33;15.60;;;14.63;;
727;SDS011;347;48.780;9.158;2022-09-25T00:19:59;16.10;;;15.00;;
727;SDS011;347;48.780;9.158;2022-09-25T00:22:24;15.87;;;14.73;;
727;SDS011;347;48.780;9.158;2022-09-25T00:24:50;15.80;;;14.70;;
727;SDS011;347;48.780;9.158;2022-09-25T00:27:16;17.80;;;16.70;;
727;SDS011;347;48.780;9.158;2022-09-25T00:29:42;17.03;;;15.73;;
727;SDS011;347;48.780;9.158;2022-09-25T00:32:09;18.20;;;17.00;;
727;SDS011;347;48.780;9.158;2022-09-25T00:34:36;14.90;;;13.80;;
727;SDS011;347;48.780;9.158;2022-09-25T00:37:02;17.40;;;16.30;;
727;SDS011;347;48.780;9.158;2022-09-25T00:39:29;14.30;;;13.27;;
727;SDS011;347;48.780;9.158;2022-09-25T00:41:55;14.43;;;13.40;;
727;SDS011;347;48.780;9.158;2022-09-25T00:47:25;17.27;;;16.17;;
727;SDS011;347;48.780;9.158;2022-09-25T00:49:55;15.87;;;15.07;;
727;SDS011;347;48.780;9.158;2022-09-25T00:52:22;15.27;;;14.47;;
727;SDS011;347;48.780;9.158;2022-09-25T00:54:53;15.60;;;14.63;;
727;SDS011;347;48.780;9.158;2022-09-25T00:57:26;13.60;;;12.70;;
727;SDS011;347;48.780;9.158;2022-09-25T00:59:56;15.70;;;14.80;;
727;SDS011;347;48.780;9.158;2022-09-25T01:04:53;16.40;;;15.40;;
727;SDS011;347;48.780;9.158;2022-09-25T01:07:25;16.90;;;15.90;;
727;SDS011;347;48.780;9.158;2022-09-25T01:09:50;17.77;;;16.77;;
727;SDS011;347;48.780;9.158;2022-09-25T01:12:16;17.10;;;16.00;;
727;SDS011;347;48.780;9.158;2022-09-25T01:14:42;17.03;;;15.97;;
727;SDS011;347;48.780;9.158;2022-09-25T01:17:13;17.20;;;16.30;;
727;SDS011;347;48.780;9.158;2022-09-25T01:30:17;15.33;;;14.33;;
727;SDS011;347;48.780;9.158;2022-09-25T01:32:48;15.10;;;14.30;;
727;SDS011;347;48.780;9.158;2022-09-25T01:38:12;16.43;;;15.53;;
727;SDS011;347;48.780;9.158;2022-09-25T01:43:37;16.40;;;15.50;;
727;SDS011;347;48.780;9.158;2022-09-25T01:46:15;14.83;;;13.93;;
727;SDS011;347;48.780;9.158;2022-09-25T01:48:46;15.03;;;13.97;;
727;SDS011;347;48.780;9.158;2022-09-25T01:51:44;15.20;;;14.30;;
727;SDS011;347;48.780;9.158;2022-09-25T01:54:19;15.57;;;14.50;;
727;SDS011;347;48.780;9.158;2022-09-25T01:57:10;15.93;;;14.77;;
727;SDS011;347;48.780;9.158;2022-09-25T01:59:46;15.13;;;14.13;;
727;SDS011;347;48.780;9.158;2022-09-25T02:02:15;15.77;;;14.87;;
727;SDS011;347;48.780;9.158;2022-09-25T02:04:50;16.00;;;15.10;;
727;SDS011;347;48.780;9.158;2022-09-25T02:07:21;14.30;;;13.40;;
727;SDS011;347;48.780;9.158;2022-09-25T02:10:04;13.53;;;12.70;;
727;SDS011;347;48.780;9.158;2022-09-25T02:12:44;16.73;;;15.70;;
727;SDS011;347;48.780;9.158;2022-09-25T02:15:24;15.80;;;14.83;;
727;SDS011;347;48.780;9.158;2022-09-25T02:18:00;18.30;;;17.17;;
727;SDS011;347;48.780;9.158;2022-09-25T02:21:00;18.27;;;17.10;;
727;SDS011;347;48.780;9.158;2022-09-25T02:26:10;18.80;;;17.50;;
727;SDS011;347;48.780;9.158;2022-09-25T02:28:47;18.43;;;17.23;;
727;SDS011;347;48.780;9.158;2022-09-25T02:31:13;18.47;;;17.20;;
727;SDS011;347;48.780;9.158;2022-09-25T02:33:41;19.47;;;18.07;;
727;SDS011;347;48.780;9.158;2022-09-25T02:36:15;17.87;;;16.77;;
727;SDS011;347;48.780;9.158;2022-09-25T02:38:43;17.67;;;16.60;;
727;SDS011;347;48.780;9.158;2022-09-25T02:41:16;17.57;;;16.57;;
727;SDS011;347;48.780;9.158;2022-09-25T02:43:56;18.37;;;17.03;;
727;SDS011;347;48.780;9.158;2022-09-25T02:46:58;17.20;;;16.20;;
727;SDS011;347;48.780;9.158;2022-09-25T02:52:18;17.47;;;16.37;;
727;SDS011;347;48.780;9.158;2022-09-25T02:55:05;17.13;;;16.07;;
727;SDS011;347;48.780;9.158;2022-09-25T02:57:53;17.80;;;16.70;;
727;SDS011;347;48.780;9.158;2022-09-25T03:00:25;17.33;;;16.23;;
727;SDS011;347;48.780;9.158;2022-09-25T03:02:52;16.40;;;15.30;;
727;SDS011;347;48.780;9.158;2022-09-25T03:05:20;18.07;;;16.97;;
727;SDS011;347;48.780;9.158;2022-09-25T03:07:48;17.40;;;16.30;;
727;SDS011;347;48.780;9.158;2022-09-25T03:10:32;16.93;;;15.93;;
727;SDS011;347;48.780;9.158;2022-09-25T03:16:00;18.10;;;16.93;;
727;SDS011;347;48.780;9.158;2022-09-25T03:18:27;16.83;;;15.73;;
727;SDS011;347;48.780;9.158;2022-09-25T03:20:54;17.07;;;16.07;;
727;SDS011;347;48.780;9.158;2022-09-25T03:23:20;16.57;;;15.67;;
727;SDS011;347;48.780;9.158;2022-09-25T03:25:46;16.30;;;15.40;;
727;SDS011;347;48.780;9.158;2022-09-25T03:28:12;16.03;;;15.13;;
727;SDS011;347;48.780;9.158;2022-09-25T03:30:39;14.20;;;13.33;;
727;SDS011;347;48.780;9.158;2022-09-25T03:33:09;15.77;;;14.87;;
727;SDS011;347;48.780;9.158;2022-09-25T03:35:39;14.40;;;13.50;;
727;SDS011;347;48.780;9.158;2022-09-25T03:38:05;13.40;;;12.67;;
727;SDS011;347;48.780;9.158;2022-09-25T03:40:32;15.60;;;14.70;;
727;SDS011;347;48.780;9.158;2022-09-25T03:42:58;16.23;;;15.27;;
727;SDS011;347;48.780;9.158;2022-09-25T03:45:24;15.73;;;14.73;;
727;SDS011;347;48.780;9.158;2022-09-25T03:47:49;16.80;;;15.90;;
727;SDS011;347;48.780;9.158;2022-09-25T03:50:15;15.27;;;14.37;;
727;SDS011;347;48.780;9.158;2022-09-25T03:52:41;15.87;;;14.97;;
727;SDS011;347;48.780;9.158;2022-09-25T03:55:06;16.47;;;15.47;;
727;SDS011;347;48.780;9.158;2022-09-25T03:57:32;15.90;;;15.00;;
727;SDS011;347;48.780;9.158;2022-09-25T03:59:58;15.60;;;14.70;;
727;SDS011;347;48.780;9.158;2022-09-25T04:02:26;15.37;;;14.20;;
727;SDS011;347;48.780;9.158;2022-09-25T04:04:53;15.50;;;14.60;;
727;SDS011;347;48.780;9.158;2022-09-25T04:07:19;14.80;;;14.00;;
727;SDS011;347;48.780;9.158;2022-09-25T04:09:46;15.93;;;15.07;;
727;SDS011;347;48.780;9.158;2022-09-25T04:12:11;15.30;;;14.40;;
727;SDS011;347;48.780;9.158;2022-09-25T04:14:37;15.10;;;14.10;;
727;SDS011;347;48.780;9.158;2022-09-25T04:17:03;15.00;;;13.97;;
727;SDS011;347;48.780;9.158;2022-09-25T04:19:29;14.60;;;13.70;;
727;SDS011;347;48.780;9.158;2022-09-25T04:21:55;18.30;;;17.13;;
727;SDS011;347;48.780;9.158;2022-09-25T04:24:20;16.97;;;16.00;;
727;SDS011;347;48.780;9.158;2022-09-25T04:27:05;17.27;;;16.07;;
727;SDS011;347;48.780;9.158;2022-09-25T04:29:31;16.87;;;15.97;;
727;SDS011;347;48.780;9.158;2022-09-25T04:31:58;16.80;;;15.77;;
727;SDS011;347;48.780;9.158;2022-09-25T04:34:42;16.70;;;15.70;;
727;SDS011;347;48.780;9.158;2022-09-25T04:37:08;16.40;;;15.43;;
727;SDS011;347;48.780;9.158;2022-09-25T04:39:34;18.10;;;16.97;;
727;SDS011;347;48.780;9.158;2022-09-25T04:42:00;19.57;;;18.27;;
727;SDS011;347;48.780;9.158;2022-09-25T04:44:25;19.37;;;17.50;;
727;SDS011;347;48.780;9.158;2022-09-25T04:46:51;18.00;;;16.70;;
727;SDS011;347;48.780;9.158;2022-09-25T04:49:17;17.57;;;15.87;;
727;SDS011;347;48.780;9.158;2022-09-25T04:51:42;17.30;;;16.00;;
727;SDS011;347;48.780;9.158;2022-09-25T04:54:08;16.80;;;15.60;;
727;SDS011;347;48.780;9.158;2022-09-25T04:56:34;16.23;;;15.23;;
727;SDS011;347;48.780;9.158;2022-09-25T04:58:59;18.03;;;16.73;;
727;SDS011;347;48.780;9.158;2022-09-25T05:01:25;17.50;;;16.50;;
727;SDS011;347;48.780;9.158;2022-09-25T05:03:51;16.20;;;15.30;;
727;SDS011;347;48.780;9.158;2022-09-25T05:06:19;17.00;;;16.00;;
727;SDS011;347;48.780;9.158;2022-09-25T05:08:46;15.77;;;14.87;;
727;SDS011;347;48.780;9.158;2022-09-25T05:11:13;16.40;;;15.40;;
727;SDS011;347;48.780;9.158;2022-09-25T05:13:39;14.60;;;13.73;;
727;SDS011;347;48.780;9.158;2022-09-25T05:16:06;15.30;;;14.50;;
727;SDS011;347;48.780;9.158;2022-09-25T05:18:32;16.63;;;15.60;;
727;SDS011;347;48.780;9.158;2022-09-25T05:21:01;16.20;;;15.20;;
727;SDS011;347;48.780;9.158;2022-09-25T05:23:30;17.00;;;15.90;;
727;SDS011;347;48.780;9.158;2022-09-25T05:25:56;16.37;;;15.50;;
727;SDS011;347;48.780;9.158;2022-09-25T05:28:26;17.77;;;16.57;;
727;SDS011;347;48.780;9.158;2022-09-25T05:30:52;18.20;;;17.10;;
727;SDS011;347;48.780;9.158;2022-09-25T05:33:18;14.87;;;13.87;;
727;SDS011;347;48.780;9.158;2022-09-25T05:35:44;15.77;;;14.67;;
727;SDS011;347;48.780;9.158;2022-09-25T05:38:10;17.20;;;16.20;;
727;SDS011;347;48.780;9.158;2022-09-25T05:40:36;17.40;;;16.40;;
727;SDS011;347;48.780;9.158;2022-09-25T05:43:03;16.53;;;15.53;;
727;SDS011;347;48.780;9.158;2022-09-25T05:45:29;16.93;;;15.87;;
727;SDS011;347;48.780;9.158;2022-09-25T05:47:59;16.50;;;15.50;;
727;SDS011;347;48.780;9.158;2022-09-25T05:50:26;18.10;;;16.90;;
727;SDS011;347;48.780;9.158;2022-09-25T05:52:56;16.83;;;15.83;;
727;SDS011;347;48.780;9.158;2022-09-25T05:55:22;17.40;;;16.37;;
727;SDS011;347;48.780;9.158;2022-09-25T05:57:48;15.87;;;14.87;;
727;SDS011;347;48.780;9.158;2022-09-25T06:00:14;18.30;;;17.10;;
727;SDS011;347;48.780;9.158;2022-09-25T06:02:40;17.63;;;16.53;;
727;SDS011;347;48.780;9.158;2022-09-25T06:05:06;18.13;;;16.83;;
727;SDS011;347;48.780;9.158;2022-09-25T06:07:33;18.70;;;17.50;;
727;SDS011;347;48.780;9.158;2022-09-25T06:09:58;18.60;;;17.30;;
727;SDS011;347;48.780;9.158;2022-09-25T06:12:24;17.27;;;16.27;;
727;SDS011;347;48.780;9.158;2022-09-25T06:14:52;18.10;;;16.90;;
727;SDS011;347;48.780;9.158;2022-09-25T06:17:18;18.50;;;17.30;;
727;SDS011;347;48.780;9.158;2022-09-25T06:19:44;17.60;;;16.60;;
727;SDS011;347;48.780;9.158;2022-09-25T06:22:10;17.87;;;16.67;;
727;SDS011;347;48.780;9.158;2022-09-25T06:24:36;18.07;;;16.87;;
727;SDS011;347;48.780;9.158;2022-09-25T06:27:02;18.63;;;17.30;;
727;SDS011;347;48.780;9.158;2022-09-25T06:29:27;20.13;;;18.70;;
727;SDS011;347;48.780;9.158;2022-09-25T06:31:53;19.53;;;18.13;;
727;SDS011;347;48.780;9.158;2022-09-25T06:34:19;20.20;;;18.70;;
727;SDS011;347;48.780;9.158;2022-09-25T06:36:44;19.07;;;17.67;;
727;SDS011;347;48.780;9.158;2022-09-25T06:39:10;19.30;;;18.10;;
727;SDS011;347;48.780;9.158;2022-09-25T06:41:35;20.27;;;18.97;;
727;SDS011;347;48.780;9.158;2022-09-25T06:44:01;19.00;;;17.73;;
727;SDS011;347;48.780;9.158;2022-09-25T06:46:27;19.23;;;17.93;;
727;SDS011;347;48.780;9.158;2022-09-25T06:48:53;20.30;;;19.00;;
727;SDS011;347;48.780;9.158;2022-09-25T06:51:21;19.90;;;18.50;;
727;SDS011;347;48.780;9.158;2022-09-25T06:53:47;18.63;;;17.33;;
727;SDS011;347;48.780;9.158;2022-09-25T06:56:16;16.60;;;15.50;;
727;SDS011;347;48.780;9.158;2022-09-25T06:58:42;19.20;;;17.70;;
727;SDS011;347;48.780;9.158;2022-09-25T07:01:07;23.37;;;21.73;;
727;SDS011;347;48.780;9.158;2022-09-25T07:03:35;19.47;;;18.17;;
727;SDS011;347;48.780;9.158;2022-09-25T07:08:37;17.40;;;16.30;;
727;SDS011;347;48.780;9.158;2022-09-25T07:11:03;20.60;;;19.20;;
727;SDS011;347;48.780;9.158;2022-09-25T07:13:30;20.20;;;18.80;;
727;SDS011;347;48.780;9.158;2022-09-25T07:16:08;20.13;;;18.67;;
727;SDS011;347;48.780;9.158;2022-09-25T07:18:37;20.03;;;18.60;;
727;SDS011;347;48.780;9.158;2022-09-25T07:21:04;18.87;;;17.67;;
727;SDS011;347;48.780;9.158;2022-09-25T07:23:34;20.17;;;18.77;;
727;SDS011;347;48.780;9.158;2022-09-25T07:26:04;19.53;;;18.20;;
727;SDS011;347;48.780;9.158;2022-09-25T07:28:31;17.27;;;16.10;;
727;SDS011;347;48.780;9.158;2022-09-25T07:30:57;18.57;;;17.43;;
727;SDS011;347;48.780;9.158;2022-09-25T07:33:22;18.20;;;17.00;;
727;SDS011;347;48.780;9.158;2022-09-25T07:35:49;19.10;;;17.80;;
727;SDS011;347;48.780;9.158;2022-09-25T07:38:16;18.87;;;17.60;;
727;SDS011;347;48.780;9.158;2022-09-25T07:40:42;17.60;;;16.40;;
727;SDS011;347;48.780;9.158;2022-09-25T07:43:08;17.77;;;16.67;;
727;SDS011;347;48.780;9.158;2022-09-25T07:45:34;15.37;;;14.40;;
727;SDS011;347;48.780;9.158;2022-09-25T07:48:01;17.00;;;15.97;;
727;SDS011;347;48.780;9.158;2022-09-25T07:50:28;17.77;;;16.30;;
727;SDS011;347;48.780;9.158;2022-09-25T07:52:55;16.37;;;15.17;;
727;SDS011;347;48.780;9.158;2022-09-25T07:55:21;17.77;;;16.57;;
727;SDS011;347;48.780;9.158;2022-09-25T07:57:47;17.63;;;16.50;;
727;SDS011;347;48.780;9.158;2022-09-25T08:00:14;17.60;;;16.60;;
727;SDS011;347;48.780;9.158;2022-09-25T08:02:41;16.77;;;15.77;;
727;SDS011;347;48.780;9.158;2022-09-25T08:05:07;16.60;;;15.60;;
727;SDS011;347;48.780;9.158;2022-09-25T08:07:33;18.03;;;16.93;;
727;SDS011;347;48.780;9.158;2022-09-25T08:09:58;17.30;;;16.20;;
727;SDS011;347;48.780;9.158;2022-09-25T08:12:24;15.47;;;14.63;;
727;SDS011;347;48.780;9.158;2022-09-25T08:14:51;14.63;;;13.73;;
727;SDS011;347;48.780;9.158;2022-09-25T08:17:17;15.13;;;14.33;;
727;SDS011;347;48.780;9.158;2022-09-25T08:19:43;14.47;;;13.67;;
727;SDS011;347;48.780;9.158;2022-09-25T08:22:10;15.60;;;14.67;;
727;SDS011;347;48.780;9.158;2022-09-25T08:24:35;14.93;;;14.10;;
727;SDS011;347;48.780;9.158;2022-09-25T08:27:02;14.57;;;13.67;;
727;SDS011;347;48.780;9.158;2022-09-25T08:29:28;14.90;;;14.00;;
727;SDS011;347;48.780;9.158;2022-09-25T08:31:54;14.80;;;13.80;;
727;SDS011;347;48.780;9.158;2022-09-25T08:34:20;13.87;;;12.97;;
727;SDS011;347;48.780;9.158;2022-09-25T08:36:47;13.60;;;12.90;;
727;SDS011;347;48.780;9.158;2022-09-25T08:39:14;13.90;;;13.20;;
727;SDS011;347;48.780;9.158;2022-09-25T08:41:44;14.87;;;14.07;;
727;SDS011;347;48.780;9.158;2022-09-25T08:46:46;14.03;;;13.23;;
727;SDS011;347;48.780;9.158;2022-09-25T08:49:49;15.20;;;14.40;;
727;SDS011;347;48.780;9.158;2022-09-25T08:52:38;16.23;;;15.33;;
727;SDS011;347;48.780;9.158;2022-09-25T08:55:12;15.43;;;14.63;;
727;SDS011;347;48.780;9.158;2022-09-25T08:57:43;14.87;;;14.07;;
727;SDS011;347;48.780;9.158;2022-09-25T09:00:17;15.47;;;14.60;;
727;SDS011;347;48.780;9.158;2022-09-25T09:02:55;14.80;;;13.80;;
727;SDS011;347;48.780;9.158;2022-09-25T09:05:33;15.20;;;14.20;;
727;SDS011;347;48.780;9.158;2022-09-25T09:08:11;14.43;;;13.73;;
727;SDS011;347;48.780;9.158;2022-09-25T09:10:52;15.70;;;14.90;;
727;SDS011;347;48.780;9.158;2022-09-25T09:16:14;14.07;;;13.27;;
727;SDS011;347;48.780;9.158;2022-09-25T09:18:47;15.07;;;14.07;;
727;SDS011;347;48.780;9.158;2022-09-25T09:21:16;15.67;;;14.87;;
727;SDS011;347;48.780;9.158;2022-09-25T09:35:13;15.57;;;14.67;;
727;SDS011;347;48.780;9.158;2022-09-25T09:49:34;13.47;;;12.67;;
727;SDS011;347;48.780;9.158;2022-09-25T09:52:02;13.67;;;12.90;;
727;SDS011;347;48.780;9.158;2022-09-25T09:57:25;13.30;;;12.50;;
727;SDS011;347;48.780;9.158;2022-09-25T09:59:56;14.27;;;13.53;;
727;SDS011;347;48.780;9.158;2022-09-25T10:02:37;13.80;;;13.10;;
727;SDS011;347;48.780;9.158;2022-09-25T10:07:49;11.60;;;11.00;;
727;SDS011;347;48.780;9.158;2022-09-25T10:10:16;13.53;;;12.63;;
727;SDS011;347;48.780;9.158;2022-09-25T10:12:47;12.37;;;11.67;;
727;SDS011;347;48.780;9.158;2022-09-25T10:15:25;15.27;;;14.23;;
727;SDS011;347;48.780;9.158;2022-09-25T10:17:54;14.80;;;13.63;;
727;SDS011;347;48.780;9.158;2022-09-25T10:20:22;13.80;;;13.10;;
727;SDS011;347;48.780;9.158;2022-09-25T10:22:49;16.33;;;15.17;;
727;SDS011;347;48.780;9.158;2022-09-25T10:25:33;16.70;;;15.70;;
727;SDS011;347;48.780;9.158;2022-09-25T10:28:45;15.50;;;14.60;;
727;SDS011;347;48.780;9.158;2022-09-25T10:30:56;14.50;;;13.70;;
727;SDS011;347;48.780;9.158;2022-09-25T10:33:24;14.37;;;13.43;;
727;SDS011;347;48.780;9.158;2022-09-25T10:35:52;13.03;;;12.23;;
727;SDS011;347;48.780;9.158;2022-09-25T10:38:38;15.13;;;13.90;;
727;SDS011;347;48.780;9.158;2022-09-25T10:41:11;15.77;;;14.87;;
727;SDS011;347;48.780;9.158;2022-09-25T10:46:27;14.97;;;14.03;;
727;SDS011;347;48.780;9.158;2022-09-25T10:49:17;15.30;;;14.40;;
727;SDS011;347;48.780;9.158;2022-09-25T10:52:12;16.40;;;15.40;;
727;SDS011;347;48.780;9.158;2022-09-25T10:54:39;15.97;;;14.87;;
727;SDS011;347;48.780;9.158;2022-09-25T11:00:03;16.30;;;15.30;;
727;SDS011;347;48.780;9.158;2022-09-25T11:02:43;18.40;;;17.13;;
727;SDS011;347;48.780;9.158;2022-09-25T11:05:14;17.03;;;16.03;;
727;SDS011;347;48.780;9.158;2022-09-25T11:07:46;16.93;;;15.73;;
727;SDS011;347;48.780;9.158;2022-09-25T11:10:26;17.57;;;16.27;;
727;SDS011;347;48.780;9.158;2022-09-25T11:12:54;18.23;;;17.13;;
727;SDS011;347;48.780;9.158;2022-09-25T11:15:22;15.00;;;14.00;;
727;SDS011;347;48.780;9.158;2022-09-25T11:17:51;18.23;;;16.93;;
727;SDS011;347;48.780;9.158;2022-09-25T11:20:28;18.53;;;17.17;;
727;SDS011;347;48.780;9.158;2022-09-25T11:28:23;21.60;;;20.00;;
727;SDS011;347;48.780;9.158;2022-09-25T11:31:09;21.17;;;19.77;;
727;SDS011;347;48.780;9.158;2022-09-25T11:39:29;21.77;;;20.27;;
727;SDS011;347;48.780;9.158;2022-09-25T11:42:27;21.03;;;19.10;;
727;SDS011;347;48.780;9.158;2022-09-25T11:45:13;21.20;;;19.70;;
727;SDS011;347;48.780;9.158;2022-09-25T11:47:45;22.07;;;20.47;;
727;SDS011;347;48.780;9.158;2022-09-25T11:50:13;22.00;;;20.27;;
727;SDS011;347;48.780;9.158;2022-09-25T11:55:35;23.30;;;21.47;;
727;SDS011;347;48.780;9.158;2022-09-25T11:58:23;20.60;;;19.13;;
727;SDS011;347;48.780;9.158;2022-09-25T12:07:01;23.17;;;21.57;;
727;SDS011;347;48.780;9.158;2022-09-25T12:15:54;25.13;;;22.90;;
727;SDS011;347;48.780;9.158;2022-09-25T12:21:15;24.47;;;22.57;;
727;SDS011;347;48.780;9.158;2022-09-25T12:23:54;24.60;;;22.67;;
727;SDS011;347;48.780;9.158;2022-09-25T12:26:47;23.33;;;21.47;;
727;SDS011;347;48.780;9.158;2022-09-25T12:29:28;23.00;;;21.40;;
727;SDS011;347;48.780;9.158;2022-09-25T12:32:05;24.80;;;23.00;;
727;SDS011;347;48.780;9.158;2022-09-25T12:37:16;24.27;;;22.13;;
727;SDS011;347;48.780;9.158;2022-09-25T12:39:48;24.53;;;22.27;;
727;SDS011;347;48.780;9.158;2022-09-25T12:45:12;24.83;;;22.90;;
727;SDS011;347;48.780;9.158;2022-09-25T12:48:02;20.37;;;18.97;;
727;SDS011;347;48.780;9.158;2022-09-25T12:50:30;20.80;;;19.40;;
727;SDS011;347;48.780;9.158;2022-09-25T12:55:47;19.30;;;17.90;;
727;SDS011;347;48.780;9.158;2022-09-25T13:04:02;16.30;;;14.90;;
727;SDS011;347;48.780;9.158;2022-09-25T13:09:19;15.90;;;14.57;;
727;SDS011;347;48.780;9.158;2022-09-25T13:12:07;16.37;;;15.07;;
727;SDS011;347;48.780;9.158;2022-09-25T13:14:48;17.80;;;16.10;;
727;SDS011;347;48.780;9.158;2022-09-25T13:17:40;17.67;;;16.33;;
727;SDS011;347;48.780;9.158;2022-09-25T13:22:51;15.07;;;13.97;;
727;SDS011;347;48.780;9.158;2022-09-25T13:25:21;15.87;;;14.67;;
727;SDS011;347;48.780;9.158;2022-09-25T13:27:48;15.17;;;13.97;;
727;SDS011;347;48.780;9.158;2022-09-25T13:30:24;15.80;;;14.37;;
727;SDS011;347;48.780;9.158;2022-09-25T13:32:53;15.00;;;13.70;;
727;SDS011;347;48.780;9.158;2022-09-25T13:35:21;15.63;;;14.57;;
727;SDS011;347;48.780;9.158;2022-09-25T13:37:48;15.53;;;14.27;;
727;SDS011;347;48.780;9.158;2022-09-25T13:40:17;15.47;;;14.30;;
727;SDS011;347;48.780;9.158;2022-09-25T13:48:42;18.03;;;16.70;;
727;SDS011;347;48.780;9.158;2022-09-25T13:54:02;15.43;;;14.33;;
727;SDS011;347;48.780;9.158;2022-09-25T13:56:47;18.00;;;16.90;;
727;SDS011;347;48.780;9.158;2022-09-25T14:01:48;15.27;;;14.17;;
727;SDS011;347;48.780;9.158;2022-09-25T14:06:54;14.90;;;13.70;;
727;SDS011;347;48.780;9.158;2022-09-25T14:09:30;15.80;;;14.33;;
727;SDS011;347;48.780;9.158;2022-09-25T14:14:32;13.50;;;12.60;;
727;SDS011;347;48.780;9.158;2022-09-25T14:17:08;15.00;;;14.00;;
727;SDS011;347;48.780;9.158;2022-09-25T14:19:40;15.00;;;14.00;;
727;SDS011;347;48.780;9.158;2022-09-25T14:22:11;14.17;;;13.20;;
727;SDS011;347;48.780;9.158;2022-09-25T14:25:03;15.90;;;14.67;;
727;SDS011;347;48.780;9.158;2022-09-25T14:27:49;15.50;;;14.40;;
727;SDS011;347;48.780;9.158;2022-09-25T14:30:16;14.97;;;13.83;;
727;SDS011;347;48.780;9.158;2022-09-25T14:37:57;14.20;;;13.20;;
727;SDS011;347;48.780;9.158;2022-09-25T14:40:42;15.67;;;14.47;;
727;SDS011;347;48.780;9.158;2022-09-25T14:48:42;14.77;;;13.53;;
727;SDS011;347;48.780;9.158;2022-09-25T14:51:10;14.17;;;12.93;;
727;SDS011;347;48.780;9.158;2022-09-25T14:54:00;13.10;;;12.27;;
727;SDS011;347;48.780;9.158;2022-09-25T14:56:28;12.90;;;12.10;;
727;SDS011;347;48.780;9.158;2022-09-25T14:58:57;11.90;;;10.93;;
727;SDS011;347;48.780;9.158;2022-09-25T15:01:30;12.00;;;11.40;;
727;SDS011;347;48.780;9.158;2022-09-25T15:04:06;13.00;;;11.90;;
727;SDS011;347;48.780;9.158;2022-09-25T15:06:36;11.40;;;10.80;;
727;SDS011;347;48.780;9.158;2022-09-25T15:11:53;12.47;;;11.73;;
727;SDS011;347;48.780;9.158;2022-09-25T15:14:20;12.33;;;11.53;;
727;SDS011;347;48.780;9.158;2022-09-25T15:16:46;12.43;;;11.70;;
727;SDS011;347;48.780;9.158;2022-09-25T15:19:32;12.90;;;12.10;;
727;SDS011;347;48.780;9.158;2022-09-25T15:22:09;12.00;;;11.20;;
727;SDS011;347;48.780;9.158;2022-09-25T15:24:42;11.67;;;10.97;;
727;SDS011;347;48.780;9.158;2022-09-25T15:27:19;12.73;;;11.80;;
727;SDS011;347;48.780;9.158;2022-09-25T15:29:46;13.60;;;12.50;;
727;SDS011;347;48.780;9.158;2022-09-25T15:32:21;13.20;;;12.27;;
727;SDS011;347;48.780;9.158;2022-09-25T15:35:03;12.67;;;11.87;;
727;SDS011;347;48.780;9.158;2022-09-25T15:37:35;12.23;;;11.33;;
727;SDS011;347;48.780;9.158;2022-09-25T15:40:16;12.97;;;11.97;;
727;SDS011;347;48.780;9.158;2022-09-25T15:42:43;12.60;;;11.80;;
727;SDS011;347;48.780;9.158;2022-09-25T15:45:26;12.93;;;11.70;;
727;SDS011;347;48.780;9.158;2022-09-25T15:50:55;13.60;;;12.80;;
727;SDS011;347;48.780;9.158;2022-09-25T15:53:33;12.50;;;11.57;;
727;SDS011;347;48.780;9.158;2022-09-25T15:56:15;12.33;;;11.40;;
727;SDS011;347;48.780;9.158;2022-09-25T15:58:48;11.87;;;10.97;;
727;SDS011;347;48.780;9.158;2022-09-25T16:01:22;12.10;;;11.20;;
727;SDS011;347;48.780;9.158;2022-09-25T16:04:09;11.80;;;11.00;;
727;SDS011;347;48.780;9.158;2022-09-25T16:06:58;11.53;;;10.73;;
727;SDS011;347;48.780;9.158;2022-09-25T16:09:31;11.77;;;10.93;;
727;SDS011;347;48.780;9.158;2022-09-25T16:12:14;11.93;;;11.13;;
727;SDS011;347;48.780;9.158;2022-09-25T16:14:47;10.57;;;10.03;;
727;SDS011;347;48.780;9.158;2022-09-25T16:17:15;12.60;;;11.90;;
727;SDS011;347;48.780;9.158;2022-09-25T16:19:56;9.37;;;8.87;;
727;SDS011;347;48.780;9.158;2022-09-25T16:22:23;10.73;;;10.13;;
727;SDS011;347;48.780;9.158;2022-09-25T16:24:50;11.43;;;10.40;;
727;SDS011;347;48.780;9.158;2022-09-25T16:27:25;10.10;;;9.50;;
727;SDS011;347;48.780;9.158;2022-09-25T16:29:54;9.10;;;8.60;;
727;SDS011;347;48.780;9.158;2022-09-25T16:32:21;9.43;;;8.83;;
727;SDS011;347;48.780;9.158;2022-09-25T16:34:53;9.80;;;9.23;;
727;SDS011;347;48.780;9.158;2022-09-25T16:37:31;9.50;;;9.10;;
727;SDS011;347;48.780;9.158;2022-09-25T16:40:14;9.20;;;8.70;;
727;SDS011;347;48.780;9.158;2022-09-25T16:42:53;9.87;;;9.27;;
727;SDS011;347;48.780;9.158;2022-09-25T16:45:32;9.87;;;9.37;;
727;SDS011;347;48.780;9.158;2022-09-25T16:47:59;9.20;;;8.80;;
727;SDS011;347;48.780;9.158;2022-09-25T16:50:45;10.53;;;9.93;;
727;SDS011;347;48.780;9.158;2022-09-25T16:53:12;9.80;;;9.30;;
727;SDS011;347;48.780;9.158;2022-09-25T16:55:45;9.10;;;8.70;;
727;SDS011;347;48.780;9.158;2022-09-25T16:58:12;9.60;;;9.10;;
727;SDS011;347;48.780;9.158;2022-09-25T17:00:39;9.27;;;8.77;;
727;SDS011;347;48.780;9.158;2022-09-25T17:03:04;9.47;;;9.00;;
727;SDS011;347;48.780;9.158;2022-09-25T17:05:30;11.10;;;10.00;;
727;SDS011;347;48.780;9.158;2022-09-25T17:07:58;9.50;;;9.10;;
727;SDS011;347;48.780;9.158;2022-09-25T17:10:28;9.20;;;8.70;;
727;SDS011;347;48.780;9.158;2022-09-25T17:12:56;9.53;;;9.03;;
727;SDS011;347;48.780;9.158;2022-09-25T17:15:25;8.83;;;8.47;;
727;SDS011;347;48.780;9.158;2022-09-25T17:17:59;9.37;;;8.87;;
727;SDS011;347;48.780;9.158;2022-09-25T17:20:26;9.27;;;8.77;;
727;SDS011;347;48.780;9.158;2022-09-25T17:22:55;9.53;;;8.97;;
727;SDS011;347;48.780;9.158;2022-09-25T17:25:32;9.40;;;8.80;;
727;SDS011;347;48.780;9.158;2022-09-25T17:28:00;10.20;;;9.60;;
727;SDS011;347;48.780;9.158;2022-09-25T17:30:27;9.20;;;8.60;;
727;SDS011;347;48.780;9.158;2022-09-25T17:32:52;8.80;;;8.27;;
727;SDS011;347;48.780;9.158;2022-09-25T17:38:05;9.87;;;9.27;;
727;SDS011;347;48.780;9.158;2022-09-25T17:40:31;10.57;;;10.07;;
727;SDS011;347;48.780;9.158;2022-09-25T17:42:57;10.10;;;9.50;;
727;SDS011;347;48.780;9.158;2022-09-25T17:46:07;11.10;;;10.40;;
727;SDS011;347;48.780;9.158;2022-09-25T17:48:14;10.70;;;10.13;;
727;SDS011;347;48.780;9.158;2022-09-25T17:50:48;10.57;;;10.03;;
727;SDS011;347;48.780;9.158;2022-09-25T17:53:18;10.30;;;9.70;;
727;SDS011;347;48.780;9.158;2022-09-25T17:55:46;11.00;;;10.30;;
727;SDS011;347;48.780;9.158;2022-09-25T17:58:15;11.40;;;10.50;;
727;SDS011;347;48.780;9.158;2022-09-25T18:00:41;11.80;;;11.07;;
727;SDS011;347;48.780;9.158;2022-09-25T18:03:11;11.30;;;10.60;;
727;SDS011;347;48.780;9.158;2022-09-25T18:05:38;12.90;;;11.90;;
727;SDS011;347;48.780;9.158;2022-09-25T18:08:03;13.57;;;12.80;;
727;SDS011;347;48.780;9.158;2022-09-25T18:10:29;14.63;;;10.53;;
727;SDS011;347;48.780;9.158;2022-09-25T18:12:55;12.70;;;11.60;;
727;SDS011;347;48.780;9.158;2022-09-25T18:15:23;12.77;;;11.87;;
727;SDS011;347;48.780;9.158;2022-09-25T18:17:49;13.50;;;12.50;;